H.j. Reinauer — WDG2205 — position and weather

sailwx.info

Track history (hours):
 
Tides and Currents Weather Stations Pressure Air Temp Water Temp Dewpoint Dewpoint Depression Visibility Wind Speed Wind Dir Waves Ship Positions

H.j. Reinauer

Owner: Boston Towing & Transportation, Boston, MA. More information available from US FCC via Universal Licensing System and Coast Guard Vessel Documentation Center.

Last reported at 2018-Mar-20 20:42 UTC. Time now 2018-Apr-22 13:56 UTC.
Position N 42°23' W 071°03'.
Warning: this ship's position is 32 days out of date.

Length 28 m; draft 4 m.

Type: Tug. MMSI: 367513240.

Date/timePositionNaut miles runAvg speedWind from/ knotsBaromVisibWave heightAir tempDewpointWater temp
2018-Mar-20 20:42N 42°23' W 071°03'0 0.0
2018-Mar-20 20:30N 42°23' W 071°03'0 0.0
2018-Mar-20 20:00N 42°23' W 071°03'0 0.1
2018-Mar-20 19:30N 42°23' W 071°03'0 1.0
2018-Mar-20 19:01N 42°23' W 071°03'1 1.3
2018-Mar-20 18:30N 42°22' W 071°03'2 4.5
2018-Mar-20 18:01N 42°21' W 071°01'1 2.6
2018-Mar-20 17:30N 42°20' W 070°60'2 3.7
2018-Mar-20 17:00N 42°21' W 071°02'3 5.1
2018-Mar-20 16:30N 42°24' W 071°01'0 0.5
2018-Mar-20 16:01N 42°23' W 071°01'2 3.2
2018-Mar-20 15:30N 42°22' W 071°03'1 2.5
2018-Mar-20 15:00N 42°21' W 071°02'2 3.2
2018-Mar-20 14:30N 42°23' W 071°03'0 0.0
2018-Mar-20 14:00N 42°23' W 071°03'0 0.0
2018-Mar-20 13:30N 42°23' W 071°03'0 0.0
2018-Mar-20 13:00N 42°23' W 071°03'0 0.0
2018-Mar-20 12:30N 42°23' W 071°03'0 0.0
2018-Mar-20 12:00N 42°23' W 071°03'0 0.0
2018-Mar-20 11:30N 42°23' W 071°03'0 0.0
2018-Mar-20 11:00N 42°23' W 071°03'0 0.0
2018-Mar-20 10:30N 42°23' W 071°03'0 0.0
2018-Mar-20 10:00N 42°23' W 071°03'0 0.0
2018-Mar-20 09:30N 42°23' W 071°03'0 0.0
2018-Mar-20 09:00N 42°23' W 071°03'0 0.0
2018-Mar-20 08:30N 42°23' W 071°03'0 0.0
2018-Mar-20 08:00N 42°23' W 071°03'0 0.0
2018-Mar-20 07:30N 42°23' W 071°03'0 0.0
2018-Mar-20 07:00N 42°23' W 071°03'0 0.0
2018-Mar-20 06:30N 42°23' W 071°03'0 0.0
2018-Mar-20 06:00N 42°23' W 071°03'0 0.0
2018-Mar-20 05:30N 42°23' W 071°03'0 0.0
2018-Mar-20 05:00N 42°23' W 071°03'0 0.0
2018-Mar-20 04:30N 42°23' W 071°03'0 0.0
2018-Mar-20 04:00N 42°23' W 071°03'0 0.0
2018-Mar-20 03:30N 42°23' W 071°03'0 0.0
2018-Mar-20 03:00N 42°23' W 071°03'0 0.0
2018-Mar-20 02:30N 42°23' W 071°03'0 0.0
2018-Mar-20 02:00N 42°23' W 071°03'0 0.0
2018-Mar-20 01:31N 42°23' W 071°03'0 0.0
2018-Mar-20 01:00N 42°23' W 071°03'0 0.0
2018-Mar-20 00:30N 42°23' W 071°03'0 0.0
2018-Mar-20 00:00N 42°23' W 071°03'0 0.0
2018-Mar-19 23:30N 42°23' W 071°03'0 0.0
2018-Mar-19 23:00N 42°23' W 071°03'0 0.0
2018-Mar-19 22:30N 42°23' W 071°03'0 0.0
2018-Mar-19 22:00N 42°23' W 071°03'0 0.0
2018-Mar-19 21:30N 42°23' W 071°03'0 0.0
2018-Mar-19 21:00N 42°23' W 071°03'0 0.0
2018-Mar-19 20:30N 42°23' W 071°03'0 0.0
2018-Mar-19 20:00N 42°23' W 071°03'0 0.0
2018-Mar-19 19:30N 42°23' W 071°03'0 0.0
2018-Mar-19 19:00N 42°23' W 071°03'0 0.0
2018-Mar-19 18:30N 42°23' W 071°03'0 0.0
2018-Mar-19 17:59N 42°23' W 071°03'0 0.0
2018-Mar-19 17:30N 42°23' W 071°03'0 0.0
2018-Mar-19 17:00N 42°23' W 071°03'0 0.0
2018-Mar-19 16:30N 42°23' W 071°03'0 0.0
2018-Mar-19 16:00N 42°23' W 071°03'0 0.0
2018-Mar-19 15:30N 42°23' W 071°03'0 0.0
2018-Mar-19 15:00N 42°23' W 071°03'0 0.0
2018-Mar-19 14:30N 42°23' W 071°03'0 0.0
2018-Mar-19 14:00N 42°23' W 071°03'0 0.0
2018-Mar-19 13:30N 42°23' W 071°03'0 0.0
2018-Mar-19 13:01N 42°23' W 071°03'0 0.0
2018-Mar-19 12:30N 42°23' W 071°03'0 0.0
2018-Mar-19 12:00N 42°23' W 071°03'0 0.0
2018-Mar-19 11:30N 42°23' W 071°03'0 0.0
2018-Mar-19 11:00N 42°23' W 071°03'0 0.0
2018-Mar-19 10:30N 42°23' W 071°03'0 0.0
2018-Mar-19 10:00N 42°23' W 071°03'0 0.0
2018-Mar-19 09:30N 42°23' W 071°03'0 0.0
2018-Mar-19 09:00N 42°23' W 071°03'0 0.0
2018-Mar-19 08:30N 42°23' W 071°03'0 0.0
2018-Mar-19 08:00N 42°23' W 071°03'0 0.0
2018-Mar-19 07:30N 42°23' W 071°03'0 0.0
2018-Mar-19 07:00N 42°23' W 071°03'0 0.0
2018-Mar-19 06:30N 42°23' W 071°03'0 0.0
2018-Mar-19 06:00N 42°23' W 071°03'0 0.0
2018-Mar-19 05:30N 42°23' W 071°03'0 0.0
2018-Mar-19 05:00N 42°23' W 071°03'0 0.0
2018-Mar-19 04:30N 42°23' W 071°03'0 0.0
2018-Mar-19 04:00N 42°23' W 071°03'0 0.0
2018-Mar-19 03:30N 42°23' W 071°03'0 0.0
2018-Mar-19 03:00N 42°23' W 071°03'0 0.0
2018-Mar-19 02:30N 42°23' W 071°03'0 0.0
2018-Mar-19 02:00N 42°23' W 071°03'0 0.0
2018-Mar-19 01:30N 42°23' W 071°03'0 0.0
2018-Mar-19 01:00N 42°23' W 071°03'0 0.0
2018-Mar-19 00:30N 42°23' W 071°03'0 0.0
2018-Mar-19 00:00N 42°23' W 071°03'0 0.0
2018-Mar-18 23:30N 42°23' W 071°03'0 0.0
2018-Mar-18 23:00N 42°23' W 071°03'0 0.0
2018-Mar-18 22:30N 42°23' W 071°03'0 0.0
2018-Mar-18 22:00N 42°23' W 071°03'0 0.0
2018-Mar-18 21:30N 42°23' W 071°03'0 0.0
2018-Mar-18 21:00N 42°23' W 071°03'0 0.0
2018-Mar-18 20:30N 42°23' W 071°03'0 0.0
2018-Mar-18 20:00N 42°23' W 071°03'0 0.0
2018-Mar-18 19:30N 42°23' W 071°03'0 0.0
2018-Mar-18 19:00N 42°23' W 071°03'0 0.0
2018-Mar-18 18:30N 42°23' W 071°03'0 0.0
2018-Mar-18 18:00N 42°23' W 071°03'0 0.0
2018-Mar-18 17:30N 42°23' W 071°03'0 0.0
2018-Mar-18 17:00N 42°23' W 071°03'0 0.0
2018-Mar-18 16:30N 42°23' W 071°03'0 0.0
2018-Mar-18 16:00N 42°23' W 071°03'0 0.0
2018-Mar-18 15:30N 42°23' W 071°03'0 0.0
2018-Mar-18 15:00N 42°23' W 071°03'0 0.0
2018-Mar-18 14:30N 42°23' W 071°03'0 0.0
2018-Mar-18 14:00N 42°23' W 071°03'0 0.0
2018-Mar-18 13:30N 42°23' W 071°03'0 0.0
2018-Mar-18 13:00N 42°23' W 071°03'0 0.0
2018-Mar-18 12:30N 42°23' W 071°03'0 0.0
2018-Mar-18 12:01N 42°23' W 071°03'0 0.0
2018-Mar-18 11:30N 42°23' W 071°03'0 0.0
2018-Mar-18 11:00N 42°23' W 071°03'0 0.0
2018-Mar-18 10:30N 42°23' W 071°03'0 0.0
2018-Mar-18 10:00N 42°23' W 071°03'0 0.0
2018-Mar-18 09:30N 42°23' W 071°03'0 0.0
2018-Mar-18 09:00N 42°23' W 071°03'0 0.0
2018-Mar-18 08:30N 42°23' W 071°03'0 0.0
2018-Mar-18 08:00N 42°23' W 071°03'0 0.0
2018-Mar-18 07:30N 42°23' W 071°03'0 0.0
2018-Mar-18 07:00N 42°23' W 071°03'0 0.0
2018-Mar-18 06:30N 42°23' W 071°03'0 0.0
2018-Mar-18 06:00N 42°23' W 071°03'0 0.0
2018-Mar-18 05:30N 42°23' W 071°03'0 0.0
2018-Mar-18 05:00N 42°23' W 071°03'0 0.0
2018-Mar-18 04:30N 42°23' W 071°03'0 0.0
2018-Mar-18 04:00N 42°23' W 071°03'0 0.0
2018-Mar-18 03:30N 42°23' W 071°03'0 0.0
2018-Mar-18 03:00N 42°23' W 071°03'0 0.0
2018-Mar-18 02:30N 42°23' W 071°03'0 0.0
2018-Mar-18 02:00N 42°23' W 071°03'0 0.0
2018-Mar-18 01:30N 42°23' W 071°03'0 0.0
2018-Mar-18 01:00N 42°23' W 071°03'0 0.0
2018-Mar-18 00:30N 42°23' W 071°03'0 0.0
2018-Mar-18 00:00N 42°23' W 071°03'0 0.0
2018-Mar-17 23:30N 42°23' W 071°03'0 0.0
2018-Mar-17 23:00N 42°23' W 071°03'0 0.0
2018-Mar-17 22:30N 42°23' W 071°03'0 0.0
2018-Mar-17 22:00N 42°23' W 071°03'0 0.0
2018-Mar-17 21:30N 42°23' W 071°03'0 0.0
2018-Mar-17 21:00N 42°23' W 071°03'0 0.0
2018-Mar-17 20:30N 42°23' W 071°03'0 0.0
2018-Mar-17 20:00N 42°23' W 071°03'0 0.0
2018-Mar-17 19:30N 42°23' W 071°03'0 0.0
2018-Mar-17 19:00N 42°23' W 071°03'0 0.0
2018-Mar-17 18:30N 42°23' W 071°03'0 0.0
2018-Mar-17 18:00N 42°23' W 071°03'0 0.0
2018-Mar-17 17:30N 42°23' W 071°03'0 0.0
2018-Mar-17 17:00N 42°23' W 071°03'0 0.0
2018-Mar-17 16:30N 42°23' W 071°03'0 0.0
2018-Mar-17 16:00N 42°23' W 071°03'0 0.0
2018-Mar-17 15:30N 42°23' W 071°03'0 0.0
2018-Mar-17 15:00N 42°23' W 071°03'0 0.0
2018-Mar-17 14:30N 42°23' W 071°03'0 0.0
2018-Mar-17 14:00N 42°23' W 071°03'0 0.0
2018-Mar-17 13:31N 42°23' W 071°03'0 0.0
2018-Mar-17 13:00N 42°23' W 071°03'0 0.0
2018-Mar-17 12:30N 42°23' W 071°03'0 0.0
2018-Mar-17 12:00N 42°23' W 071°03'0 0.0
2018-Mar-17 11:30N 42°23' W 071°03'0 0.0
2018-Mar-17 11:00N 42°23' W 071°03'0 0.0
2018-Mar-17 10:30N 42°23' W 071°03'0 0.0
2018-Mar-17 10:00N 42°23' W 071°03'0 0.0
2018-Mar-17 09:30N 42°23' W 071°03'0 0.0
2018-Mar-17 09:00N 42°23' W 071°03'0 0.0
2018-Mar-17 08:30N 42°23' W 071°03'0 0.0
2018-Mar-17 08:00N 42°23' W 071°03'0 0.0
2018-Mar-17 07:30N 42°23' W 071°03'0 0.0
2018-Mar-17 07:00N 42°23' W 071°03'0 0.0
2018-Mar-17 06:30N 42°23' W 071°03'0 0.0
2018-Mar-17 06:00N 42°23' W 071°03'0 0.0
2018-Mar-17 05:30N 42°23' W 071°03'0 0.0
2018-Mar-17 05:00N 42°23' W 071°03'0 0.0
2018-Mar-17 04:30N 42°23' W 071°03'0 0.0
2018-Mar-17 04:00N 42°23' W 071°03'0 0.0
2018-Mar-17 03:30N 42°23' W 071°03'0 0.0
2018-Mar-17 03:00N 42°23' W 071°03'0 0.0
2018-Mar-17 02:30N 42°23' W 071°03'0 0.0
2018-Mar-17 02:00N 42°23' W 071°03'0 0.0
2018-Mar-17 01:30N 42°23' W 071°03'0 0.0
2018-Mar-17 01:00N 42°23' W 071°03'0 0.0
2018-Mar-17 00:30N 42°23' W 071°03'0 0.0
2018-Mar-17 00:00N 42°23' W 071°03'0 0.0
2018-Mar-16 23:30N 42°23' W 071°03'0 0.0
2018-Mar-16 23:00N 42°23' W 071°03'0 0.0
2018-Mar-16 22:30N 42°23' W 071°03'0 0.0
2018-Mar-16 22:00N 42°23' W 071°03'0 0.0
2018-Mar-16 21:30N 42°23' W 071°03'0 0.0
2018-Mar-16 21:00N 42°23' W 071°03'0 0.0
2018-Mar-16 20:30N 42°23' W 071°03'0 0.0
2018-Mar-16 20:00N 42°23' W 071°03'0 0.0
2018-Mar-16 19:30N 42°23' W 071°03'0 0.0
2018-Mar-16 19:00N 42°23' W 071°03'0 0.0
2018-Mar-16 18:30N 42°23' W 071°03'0 0.0
2018-Mar-16 18:00N 42°23' W 071°03'0 0.0
2018-Mar-16 17:30N 42°23' W 071°03'0 0.0
2018-Mar-16 17:00N 42°23' W 071°03'0 0.0
2018-Mar-16 16:30N 42°23' W 071°03'0 0.0
2018-Mar-16 16:00N 42°23' W 071°03'0 0.0
2018-Mar-16 15:30N 42°23' W 071°03'0 0.0
2018-Mar-16 15:00N 42°23' W 071°03'0 0.0
2018-Mar-16 14:31N 42°23' W 071°03'0 0.0
2018-Mar-16 14:00N 42°23' W 071°03'0 0.0
2018-Mar-16 13:30N 42°23' W 071°03'0 0.0
2018-Mar-16 13:00N 42°23' W 071°03'0 0.0
2018-Mar-16 12:30N 42°23' W 071°03'0 0.0
2018-Mar-16 12:00N 42°23' W 071°03'0 0.0
2018-Mar-16 11:29N 42°23' W 071°03'0 0.0
2018-Mar-16 11:00N 42°23' W 071°03'0 0.0
2018-Mar-16 10:30N 42°23' W 071°03'0 0.0
2018-Mar-16 10:00N 42°23' W 071°03'0 0.0
2018-Mar-16 09:30N 42°23' W 071°03'0 0.0
2018-Mar-16 09:00N 42°23' W 071°03'0 0.0
2018-Mar-16 08:30N 42°23' W 071°03'0 0.0
2018-Mar-16 08:00N 42°23' W 071°03'0 0.0
2018-Mar-16 07:31N 42°23' W 071°03'0 0.0
2018-Mar-16 07:00N 42°23' W 071°03'0 0.0
2018-Mar-16 06:30N 42°23' W 071°03'0 0.0
2018-Mar-16 06:00N 42°23' W 071°03'0 0.0
2018-Mar-16 05:30N 42°23' W 071°03'0 0.0
2018-Mar-16 05:01N 42°23' W 071°03'0 0.0
2018-Mar-16 04:30N 42°23' W 071°03'0 0.0
2018-Mar-16 04:00N 42°23' W 071°03'0 0.0
2018-Mar-16 03:30N 42°23' W 071°03'0 0.0
2018-Mar-16 03:01N 42°23' W 071°03'0 0.0
2018-Mar-16 02:30N 42°23' W 071°03'0 0.0
2018-Mar-16 02:00N 42°23' W 071°03'0 0.0
2018-Mar-16 01:30N 42°23' W 071°03'0 0.0
2018-Mar-16 01:00N 42°23' W 071°03'0 0.0
2018-Mar-16 00:30N 42°23' W 071°03'0 0.0
2018-Mar-16 00:00N 42°23' W 071°03'0 0.0
2018-Mar-15 23:30N 42°23' W 071°03'0 0.0
2018-Mar-15 23:00N 42°23' W 071°03'0 0.0
2018-Mar-15 22:29N 42°23' W 071°03'0 0.0
2018-Mar-15 22:00N 42°23' W 071°03'0 0.0
2018-Mar-15 21:30N 42°23' W 071°03'0 0.0
2018-Mar-15 21:00N 42°23' W 071°03'0 0.0
2018-Mar-15 20:30N 42°23' W 071°03'0 0.0
2018-Mar-15 20:00N 42°23' W 071°03'0 0.0
2018-Mar-15 19:30N 42°23' W 071°03'0 0.0
2018-Mar-15 19:00N 42°23' W 071°03'0 0.0
2018-Mar-15 18:30N 42°23' W 071°03'0 0.0
2018-Mar-15 18:00N 42°23' W 071°03'0 0.0
2018-Mar-15 17:29N 42°23' W 071°03'0 0.0
2018-Mar-15 17:00N 42°23' W 071°03'0 0.0
2018-Mar-15 16:30N 42°23' W 071°03'0 0.0
2018-Mar-15 16:00N 42°23' W 071°03'0 0.0
2018-Mar-15 15:30N 42°23' W 071°03'0 0.0
2018-Mar-15 15:00N 42°23' W 071°03'0 0.0
2018-Mar-15 14:30N 42°23' W 071°03'0 0.0
2018-Mar-15 14:01N 42°23' W 071°03'0 0.0
2018-Mar-15 13:30N 42°23' W 071°03'0 0.0
2018-Mar-15 13:00N 42°23' W 071°03'0 0.0
2018-Mar-15 12:30N 42°23' W 071°03'0 0.0
2018-Mar-15 12:00N 42°23' W 071°03'0 0.0
2018-Mar-15 11:30N 42°23' W 071°03'0 0.0
2018-Mar-15 11:01N 42°23' W 071°03'0 0.0
2018-Mar-15 10:30N 42°23' W 071°03'0 0.0
2018-Mar-15 10:00N 42°23' W 071°03'0 0.0
2018-Mar-15 09:30N 42°23' W 071°03'0 0.0
2018-Mar-15 09:00N 42°23' W 071°03'0 0.0
2018-Mar-15 08:30N 42°23' W 071°03'0 0.0
2018-Mar-15 08:01N 42°23' W 071°03'0 0.0
2018-Mar-15 07:30N 42°23' W 071°03'0 0.0
2018-Mar-15 07:00N 42°23' W 071°03'0 0.0
2018-Mar-15 06:30N 42°23' W 071°03'0 0.0
2018-Mar-15 06:00N 42°23' W 071°03'0 0.0
2018-Mar-15 05:31N 42°23' W 071°03'0 0.0
2018-Mar-15 05:00N 42°23' W 071°03'0 0.0
2018-Mar-15 04:30N 42°23' W 071°03'0 0.0
2018-Mar-15 04:00N 42°23' W 071°03'0 0.0
2018-Mar-15 03:30N 42°23' W 071°03'0 0.0
2018-Mar-15 03:00N 42°23' W 071°03'0 0.0
2018-Mar-15 02:30N 42°23' W 071°03'0 0.0
2018-Mar-15 02:00N 42°23' W 071°03'0 0.0
2018-Mar-15 01:31N 42°23' W 071°03'0 0.0
2018-Mar-15 01:00N 42°23' W 071°03'0 0.0
2018-Mar-15 00:30N 42°23' W 071°03'0 0.0
2018-Mar-15 00:00N 42°23' W 071°03'0 0.0
2018-Mar-14 23:30N 42°23' W 071°03'0 0.0
2018-Mar-14 23:00N 42°23' W 071°03'0 0.0
2018-Mar-14 22:30N 42°23' W 071°03'0 0.0
2018-Mar-14 22:00N 42°23' W 071°03'0 0.0
2018-Mar-14 21:30N 42°23' W 071°03'0 0.0
2018-Mar-14 21:00N 42°23' W 071°03'0 0.0
2018-Mar-14 20:30N 42°23' W 071°03'0 0.0
2018-Mar-14 20:00N 42°23' W 071°03'0 0.0
2018-Mar-14 19:30N 42°23' W 071°03'0 0.0
2018-Mar-14 19:00N 42°23' W 071°03'0 0.0
2018-Mar-14 18:30N 42°23' W 071°03'0 0.0
2018-Mar-14 18:00N 42°23' W 071°03'0 0.0
2018-Mar-14 17:31N 42°23' W 071°03'0 0.0
2018-Mar-14 17:00N 42°23' W 071°03'0 0.0
2018-Mar-14 16:30N 42°23' W 071°03'0 0.0
2018-Mar-14 16:00N 42°23' W 071°03'0 0.0
2018-Mar-14 15:31N 42°23' W 071°03'0 0.0
2018-Mar-14 15:00N 42°23' W 071°03'0 0.0
2018-Mar-14 14:30N 42°23' W 071°03'0 0.0
2018-Mar-14 14:00N 42°23' W 071°03'0 0.0
2018-Mar-14 13:30N 42°23' W 071°03'0 0.0
2018-Mar-14 13:00N 42°23' W 071°03'0 0.0
2018-Mar-14 12:30N 42°23' W 071°03'0 0.0
2018-Mar-14 12:00N 42°23' W 071°03'0 0.0
2018-Mar-14 11:30N 42°23' W 071°03'0 0.0
2018-Mar-14 11:01N 42°23' W 071°03'0 0.0
2018-Mar-14 10:30N 42°23' W 071°03'0 0.0
2018-Mar-14 10:00N 42°23' W 071°03'0 0.0
2018-Mar-14 09:30N 42°23' W 071°03'0 0.0
2018-Mar-14 09:00N 42°23' W 071°03'0 0.0
2018-Mar-14 08:30N 42°23' W 071°03'0 0.0
2018-Mar-14 08:00N 42°23' W 071°03'0 0.0
2018-Mar-14 07:30N 42°23' W 071°03'0 0.0
2018-Mar-14 07:00N 42°23' W 071°03'0 0.0
2018-Mar-14 06:30N 42°23' W 071°03'0 0.0
2018-Mar-14 06:00N 42°23' W 071°03'0 0.0
2018-Mar-14 05:31N 42°23' W 071°03'0 0.0
2018-Mar-14 05:00N 42°23' W 071°03'0 0.0
2018-Mar-14 04:30N 42°23' W 071°03'0 0.0
2018-Mar-14 04:00N 42°23' W 071°03'0 0.0
2018-Mar-14 03:30N 42°23' W 071°03'0 0.0
2018-Mar-14 03:00N 42°23' W 071°03'0 0.0
2018-Mar-14 02:30N 42°23' W 071°03'0 0.0
2018-Mar-14 02:00N 42°23' W 071°03'0 0.0
2018-Mar-14 01:30N 42°23' W 071°03'0 0.0
2018-Mar-14 01:00N 42°23' W 071°03'0 0.0
2018-Mar-14 00:30N 42°23' W 071°03'0 0.0
2018-Mar-14 00:00N 42°23' W 071°03'0 0.0
2018-Mar-13 23:30N 42°23' W 071°03'0 0.0
2018-Mar-13 23:00N 42°23' W 071°03'0 0.0
2018-Mar-13 22:30N 42°23' W 071°03'0 0.0
2018-Mar-13 22:00N 42°23' W 071°03'0 0.0
2018-Mar-13 21:30N 42°23' W 071°03'0 0.0
2018-Mar-13 21:00N 42°23' W 071°03'0 0.0
2018-Mar-13 20:30N 42°23' W 071°03'0 0.0
2018-Mar-13 20:00N 42°23' W 071°03'0 0.0
2018-Mar-13 19:30N 42°23' W 071°03'0 0.0
2018-Mar-13 19:00N 42°23' W 071°03'0 0.0
2018-Mar-13 18:30N 42°23' W 071°03'0 0.0
2018-Mar-13 18:00N 42°23' W 071°03'0 0.0
2018-Mar-13 17:30N 42°23' W 071°03'0 0.0
2018-Mar-13 17:00N 42°23' W 071°03'0 0.0
2018-Mar-13 16:30N 42°23' W 071°03'0 0.0
2018-Mar-13 16:00N 42°23' W 071°03'0 0.0
2018-Mar-13 15:30N 42°23' W 071°03'0 0.0
2018-Mar-13 15:00N 42°23' W 071°03'0 0.0
2018-Mar-13 14:29N 42°23' W 071°03'0 0.0
2018-Mar-13 14:00N 42°23' W 071°03'0 0.0
2018-Mar-13 13:30N 42°23' W 071°03'0 0.0
2018-Mar-13 13:00N 42°23' W 071°03'0 0.0
2018-Mar-13 12:30N 42°23' W 071°03'0 0.0
2018-Mar-13 12:00N 42°23' W 071°03'0 0.0
2018-Mar-13 11:30N 42°23' W 071°03'0 0.0
2018-Mar-13 11:00N 42°23' W 071°03'0 0.0
2018-Mar-13 10:30N 42°23' W 071°03'0 0.0
2018-Mar-13 10:00N 42°23' W 071°03'0 0.0
2018-Mar-13 09:30N 42°23' W 071°03'0 0.0
2018-Mar-13 09:01N 42°23' W 071°03'0 0.0
2018-Mar-13 08:30N 42°23' W 071°03'0 0.0
2018-Mar-13 08:00N 42°23' W 071°03'0 0.0
2018-Mar-13 07:30N 42°23' W 071°03'0 0.0
2018-Mar-13 07:00N 42°23' W 071°03'0 0.0
2018-Mar-13 06:30N 42°23' W 071°03'0 0.0
2018-Mar-13 06:01N 42°23' W 071°03'0 0.0
2018-Mar-13 05:30N 42°23' W 071°03'0 0.0
2018-Mar-13 05:00N 42°23' W 071°03'0 0.0
2018-Mar-13 04:30N 42°23' W 071°03'0 0.0
2018-Mar-13 04:00N 42°23' W 071°03'0 0.0
2018-Mar-13 03:30N 42°23' W 071°03'0 0.0
2018-Mar-13 03:00N 42°23' W 071°03'0 0.0
2018-Mar-13 02:30N 42°23' W 071°03'0 0.0
2018-Mar-13 02:00N 42°23' W 071°03'0 0.0
2018-Mar-13 01:30N 42°23' W 071°03'0 0.0
2018-Mar-13 01:00N 42°23' W 071°03'0 0.0
2018-Mar-13 00:30N 42°23' W 071°03'0 0.0
2018-Mar-13 00:00N 42°23' W 071°03'0 0.0
2018-Mar-12 23:30N 42°23' W 071°03'0 0.0
2018-Mar-12 23:00N 42°23' W 071°03'0 0.0
2018-Mar-12 22:30N 42°23' W 071°03'0 0.0
2018-Mar-12 22:00N 42°23' W 071°03'0 0.0
2018-Mar-12 21:30N 42°23' W 071°03'0 0.0
2018-Mar-12 21:00N 42°23' W 071°03'0 0.0
2018-Mar-12 20:30N 42°23' W 071°03'0 0.0
2018-Mar-12 20:00N 42°23' W 071°03'0 0.0
2018-Mar-12 19:30N 42°23' W 071°03'0 0.0
2018-Mar-12 19:00N 42°23' W 071°03'0 0.0
2018-Mar-12 18:30N 42°23' W 071°03'0 0.0
2018-Mar-12 18:00N 42°23' W 071°03'0 0.0
2018-Mar-12 17:30N 42°23' W 071°03'0 0.0
2018-Mar-12 17:00N 42°23' W 071°03'0 0.0
2018-Mar-12 16:30N 42°23' W 071°03'0 0.0
2018-Mar-12 16:00N 42°23' W 071°03'0 0.0
2018-Mar-12 15:30N 42°23' W 071°03'0 0.0
2018-Mar-12 15:00N 42°23' W 071°03'0 0.0
2018-Mar-12 14:31N 42°23' W 071°03'0 0.0
2018-Mar-12 14:00N 42°23' W 071°03'0 0.0
2018-Mar-12 13:30N 42°23' W 071°03'0 0.0
2018-Mar-12 13:00N 42°23' W 071°03'0 0.0
2018-Mar-12 12:30N 42°23' W 071°03'0 0.0
2018-Mar-12 12:01N 42°23' W 071°03'0 0.0
2018-Mar-12 11:30N 42°23' W 071°03'0 0.0
2018-Mar-12 11:00N 42°23' W 071°03'0 0.0
2018-Mar-12 10:30N 42°23' W 071°03'0 0.0
2018-Mar-12 10:00N 42°23' W 071°03'0 0.0
2018-Mar-12 09:30N 42°23' W 071°03'0 0.0
2018-Mar-12 09:00N 42°23' W 071°03'0 0.0
2018-Mar-12 08:30N 42°23' W 071°03'0 0.0
2018-Mar-12 08:00N 42°23' W 071°03'0 0.0
2018-Mar-12 07:30N 42°23' W 071°03'0 0.0
2018-Mar-12 07:00N 42°23' W 071°03'0 0.0
2018-Mar-12 06:30N 42°23' W 071°03'0 0.0
2018-Mar-12 06:00N 42°23' W 071°03'0 0.0
2018-Mar-12 05:30N 42°23' W 071°03'0 0.0
2018-Mar-12 05:00N 42°23' W 071°03'0 0.0
2018-Mar-12 04:30N 42°23' W 071°03'0 0.0
2018-Mar-12 04:00N 42°23' W 071°03'0 0.0
2018-Mar-12 03:30N 42°23' W 071°03'0 0.0
2018-Mar-12 03:00N 42°23' W 071°03'0 0.0
2018-Mar-12 02:30N 42°23' W 071°03'0 0.0
2018-Mar-12 02:00N 42°23' W 071°03'0 0.0
2018-Mar-12 01:30N 42°23' W 071°03'0 0.0
2018-Mar-12 01:00N 42°23' W 071°03'0 0.0
2018-Mar-12 00:30N 42°23' W 071°03'0 0.0
2018-Mar-12 00:00N 42°23' W 071°03'0 0.0
2018-Mar-11 23:30N 42°23' W 071°03'0 0.0
2018-Mar-11 23:00N 42°23' W 071°03'0 0.0
2018-Mar-11 22:30N 42°23' W 071°03'0 0.0
2018-Mar-11 22:00N 42°23' W 071°03'0 0.0
2018-Mar-11 21:30N 42°23' W 071°03'0 0.0
2018-Mar-11 21:00N 42°23' W 071°03'0 0.0
2018-Mar-11 20:30N 42°23' W 071°03'0 0.0
2018-Mar-11 20:00N 42°23' W 071°03'0 0.0
2018-Mar-11 19:30N 42°23' W 071°03'0 0.0
2018-Mar-11 19:00N 42°23' W 071°03'0 0.0
2018-Mar-11 18:30N 42°23' W 071°03'0 0.0
2018-Mar-11 18:00N 42°23' W 071°03'0 0.0
2018-Mar-11 17:30N 42°23' W 071°03'0 0.0
2018-Mar-11 17:00N 42°23' W 071°03'0 0.0
2018-Mar-11 16:30N 42°23' W 071°03'0 0.0
2018-Mar-11 16:00N 42°23' W 071°03'0 0.0
2018-Mar-11 15:30N 42°23' W 071°03'0 0.0
2018-Mar-11 15:00N 42°23' W 071°03'0 0.0
2018-Mar-11 14:31N 42°23' W 071°03'0 0.0
2018-Mar-11 14:00N 42°23' W 071°03'0 0.0
2018-Mar-11 13:30N 42°23' W 071°03'0 0.0
2018-Mar-11 13:00N 42°23' W 071°03'0 0.0
2018-Mar-11 12:30N 42°23' W 071°03'0 0.0
2018-Mar-11 12:00N 42°23' W 071°03'0 0.0
2018-Mar-11 11:29N 42°23' W 071°03'0 0.0
2018-Mar-11 11:00N 42°23' W 071°03'0 0.0
2018-Mar-11 10:30N 42°23' W 071°03'0 0.0
2018-Mar-11 10:00N 42°23' W 071°03'0 0.0
2018-Mar-11 09:30N 42°23' W 071°03'0 0.0
2018-Mar-11 09:00N 42°23' W 071°03'0 0.0
2018-Mar-11 08:30N 42°23' W 071°03'0 0.0
2018-Mar-11 08:00N 42°23' W 071°03'0 0.0
2018-Mar-11 07:30N 42°23' W 071°03'0 0.0
2018-Mar-11 07:00N 42°23' W 071°03'0 0.0
2018-Mar-11 06:30N 42°23' W 071°03'0 0.0
2018-Mar-11 06:00N 42°23' W 071°03'0 0.0
2018-Mar-11 05:30N 42°23' W 071°03'0 0.0
2018-Mar-11 05:00N 42°23' W 071°03'0 0.0
2018-Mar-11 04:30N 42°23' W 071°03'0 0.0
2018-Mar-11 04:00N 42°23' W 071°03'0 0.0
2018-Mar-11 03:30N 42°23' W 071°03'0 0.0
2018-Mar-11 03:00N 42°23' W 071°03'0 0.0
2018-Mar-11 02:31N 42°23' W 071°03'0 0.0
2018-Mar-11 02:00N 42°23' W 071°03'0 0.0
2018-Mar-11 01:30N 42°23' W 071°03'0 0.0
2018-Mar-11 01:00N 42°23' W 071°03'0 0.0
2018-Mar-11 00:30N 42°23' W 071°03'0 0.0
2018-Mar-11 00:00N 42°23' W 071°03'0 0.0
2018-Mar-10 23:30N 42°23' W 071°03'0 0.0
2018-Mar-10 23:00N 42°23' W 071°03'0 0.0
2018-Mar-10 22:30N 42°23' W 071°03'0 0.0
2018-Mar-10 22:00N 42°23' W 071°03'0 0.0
2018-Mar-10 21:30N 42°23' W 071°03'0 0.0
2018-Mar-10 21:01N 42°23' W 071°03'  
Track history (hours):
 
Tides and Currents Weather Stations Pressure Air Temp Water Temp Dewpoint Dewpoint Depression Visibility Wind Speed Wind Dir Waves Ship Positions

H.j. Reinauer

Owner: Boston Towing & Transportation, Boston, MA. More information available from US FCC via Universal Licensing System and Coast Guard Vessel Documentation Center.

Last reported at 2018-Mar-20 20:42 UTC. Time now 2018-Apr-22 13:56 UTC.
Position N 42°23' W 071°03'.
Warning: this ship's position is 32 days out of date.

Length 28 m; draft 4 m.

Type: Tug. MMSI: 367513240.

Date/timePositionNaut miles runAvg speedWind from/ knotsBaromVisibWave heightAir tempDewpointWater temp
2018-Mar-20 20:42N 42°23' W 071°03'0 0.0
2018-Mar-20 20:30N 42°23' W 071°03'0 0.0
2018-Mar-20 20:00N 42°23' W 071°03'0 0.1
2018-Mar-20 19:30N 42°23' W 071°03'0 1.0
2018-Mar-20 19:01N 42°23' W 071°03'1 1.3
2018-Mar-20 18:30N 42°22' W 071°03'2 4.5
2018-Mar-20 18:01N 42°21' W 071°01'1 2.6
2018-Mar-20 17:30N 42°20' W 070°60'2 3.7
2018-Mar-20 17:00N 42°21' W 071°02'3 5.1
2018-Mar-20 16:30N 42°24' W 071°01'0 0.5
2018-Mar-20 16:01N 42°23' W 071°01'2 3.2
2018-Mar-20 15:30N 42°22' W 071°03'1 2.5
2018-Mar-20 15:00N 42°21' W 071°02'2 3.2
2018-Mar-20 14:30N 42°23' W 071°03'0 0.0
2018-Mar-20 14:00N 42°23' W 071°03'0 0.0
2018-Mar-20 13:30N 42°23' W 071°03'0 0.0
2018-Mar-20 13:00N 42°23' W 071°03'0 0.0
2018-Mar-20 12:30N 42°23' W 071°03'0 0.0
2018-Mar-20 12:00N 42°23' W 071°03'0 0.0
2018-Mar-20 11:30N 42°23' W 071°03'0 0.0
2018-Mar-20 11:00N 42°23' W 071°03'0 0.0
2018-Mar-20 10:30N 42°23' W 071°03'0 0.0
2018-Mar-20 10:00N 42°23' W 071°03'0 0.0
2018-Mar-20 09:30N 42°23' W 071°03'0 0.0
2018-Mar-20 09:00N 42°23' W 071°03'0 0.0
2018-Mar-20 08:30N 42°23' W 071°03'0 0.0
2018-Mar-20 08:00N 42°23' W 071°03'0 0.0
2018-Mar-20 07:30N 42°23' W 071°03'0 0.0
2018-Mar-20 07:00N 42°23' W 071°03'0 0.0
2018-Mar-20 06:30N 42°23' W 071°03'0 0.0
2018-Mar-20 06:00N 42°23' W 071°03'0 0.0
2018-Mar-20 05:30N 42°23' W 071°03'0 0.0
2018-Mar-20 05:00N 42°23' W 071°03'0 0.0
2018-Mar-20 04:30N 42°23' W 071°03'0 0.0
2018-Mar-20 04:00N 42°23' W 071°03'0 0.0
2018-Mar-20 03:30N 42°23' W 071°03'0 0.0
2018-Mar-20 03:00N 42°23' W 071°03'0 0.0
2018-Mar-20 02:30N 42°23' W 071°03'0 0.0
2018-Mar-20 02:00N 42°23' W 071°03'0 0.0
2018-Mar-20 01:31N 42°23' W 071°03'0 0.0
2018-Mar-20 01:00N 42°23' W 071°03'0 0.0
2018-Mar-20 00:30N 42°23' W 071°03'0 0.0
2018-Mar-20 00:00N 42°23' W 071°03'0 0.0
2018-Mar-19 23:30N 42°23' W 071°03'0 0.0
2018-Mar-19 23:00N 42°23' W 071°03'0 0.0
2018-Mar-19 22:30N 42°23' W 071°03'0 0.0
2018-Mar-19 22:00N 42°23' W 071°03'0 0.0
2018-Mar-19 21:30N 42°23' W 071°03'0 0.0
2018-Mar-19 21:00N 42°23' W 071°03'0 0.0
2018-Mar-19 20:30N 42°23' W 071°03'0 0.0
2018-Mar-19 20:00N 42°23' W 071°03'0 0.0
2018-Mar-19 19:30N 42°23' W 071°03'0 0.0
2018-Mar-19 19:00N 42°23' W 071°03'0 0.0
2018-Mar-19 18:30N 42°23' W 071°03'0 0.0
2018-Mar-19 17:59N 42°23' W 071°03'0 0.0
2018-Mar-19 17:30N 42°23' W 071°03'0 0.0
2018-Mar-19 17:00N 42°23' W 071°03'0 0.0
2018-Mar-19 16:30N 42°23' W 071°03'0 0.0
2018-Mar-19 16:00N 42°23' W 071°03'0 0.0
2018-Mar-19 15:30N 42°23' W 071°03'0 0.0
2018-Mar-19 15:00N 42°23' W 071°03'0 0.0
2018-Mar-19 14:30N 42°23' W 071°03'0 0.0
2018-Mar-19 14:00N 42°23' W 071°03'0 0.0
2018-Mar-19 13:30N 42°23' W 071°03'0 0.0
2018-Mar-19 13:01N 42°23' W 071°03'0 0.0
2018-Mar-19 12:30N 42°23' W 071°03'0 0.0
2018-Mar-19 12:00N 42°23' W 071°03'0 0.0
2018-Mar-19 11:30N 42°23' W 071°03'0 0.0
2018-Mar-19 11:00N 42°23' W 071°03'0 0.0
2018-Mar-19 10:30N 42°23' W 071°03'0 0.0
2018-Mar-19 10:00N 42°23' W 071°03'0 0.0
2018-Mar-19 09:30N 42°23' W 071°03'0 0.0
2018-Mar-19 09:00N 42°23' W 071°03'0 0.0
2018-Mar-19 08:30N 42°23' W 071°03'0 0.0
2018-Mar-19 08:00N 42°23' W 071°03'0 0.0
2018-Mar-19 07:30N 42°23' W 071°03'0 0.0
2018-Mar-19 07:00N 42°23' W 071°03'0 0.0
2018-Mar-19 06:30N 42°23' W 071°03'0 0.0
2018-Mar-19 06:00N 42°23' W 071°03'0 0.0
2018-Mar-19 05:30N 42°23' W 071°03'0 0.0
2018-Mar-19 05:00N 42°23' W 071°03'0 0.0
2018-Mar-19 04:30N 42°23' W 071°03'0 0.0
2018-Mar-19 04:00N 42°23' W 071°03'0 0.0
2018-Mar-19 03:30N 42°23' W 071°03'0 0.0
2018-Mar-19 03:00N 42°23' W 071°03'0 0.0
2018-Mar-19 02:30N 42°23' W 071°03'0 0.0
2018-Mar-19 02:00N 42°23' W 071°03'0 0.0
2018-Mar-19 01:30N 42°23' W 071°03'0 0.0
2018-Mar-19 01:00N 42°23' W 071°03'0 0.0
2018-Mar-19 00:30N 42°23' W 071°03'0 0.0
2018-Mar-19 00:00N 42°23' W 071°03'0 0.0
2018-Mar-18 23:30N 42°23' W 071°03'0 0.0
2018-Mar-18 23:00N 42°23' W 071°03'0 0.0
2018-Mar-18 22:30N 42°23' W 071°03'0 0.0
2018-Mar-18 22:00N 42°23' W 071°03'0 0.0
2018-Mar-18 21:30N 42°23' W 071°03'0 0.0
2018-Mar-18 21:00N 42°23' W 071°03'0 0.0
2018-Mar-18 20:30N 42°23' W 071°03'0 0.0
2018-Mar-18 20:00N 42°23' W 071°03'0 0.0
2018-Mar-18 19:30N 42°23' W 071°03'0 0.0
2018-Mar-18 19:00N 42°23' W 071°03'0 0.0
2018-Mar-18 18:30N 42°23' W 071°03'0 0.0
2018-Mar-18 18:00N 42°23' W 071°03'0 0.0
2018-Mar-18 17:30N 42°23' W 071°03'0 0.0
2018-Mar-18 17:00N 42°23' W 071°03'0 0.0
2018-Mar-18 16:30N 42°23' W 071°03'0 0.0
2018-Mar-18 16:00N 42°23' W 071°03'0 0.0
2018-Mar-18 15:30N 42°23' W 071°03'0 0.0
2018-Mar-18 15:00N 42°23' W 071°03'0 0.0
2018-Mar-18 14:30N 42°23' W 071°03'0 0.0
2018-Mar-18 14:00N 42°23' W 071°03'0 0.0
2018-Mar-18 13:30N 42°23' W 071°03'0 0.0
2018-Mar-18 13:00N 42°23' W 071°03'0 0.0
2018-Mar-18 12:30N 42°23' W 071°03'0 0.0
2018-Mar-18 12:01N 42°23' W 071°03'0 0.0
2018-Mar-18 11:30N 42°23' W 071°03'0 0.0
2018-Mar-18 11:00N 42°23' W 071°03'0 0.0
2018-Mar-18 10:30N 42°23' W 071°03'0 0.0
2018-Mar-18 10:00N 42°23' W 071°03'0 0.0
2018-Mar-18 09:30N 42°23' W 071°03'0 0.0
2018-Mar-18 09:00N 42°23' W 071°03'0 0.0
2018-Mar-18 08:30N 42°23' W 071°03'0 0.0
2018-Mar-18 08:00N 42°23' W 071°03'0 0.0
2018-Mar-18 07:30N 42°23' W 071°03'0 0.0
2018-Mar-18 07:00N 42°23' W 071°03'0 0.0
2018-Mar-18 06:30N 42°23' W 071°03'0 0.0
2018-Mar-18 06:00N 42°23' W 071°03'0 0.0
2018-Mar-18 05:30N 42°23' W 071°03'0 0.0
2018-Mar-18 05:00N 42°23' W 071°03'0 0.0
2018-Mar-18 04:30N 42°23' W 071°03'0 0.0
2018-Mar-18 04:00N 42°23' W 071°03'0 0.0
2018-Mar-18 03:30N 42°23' W 071°03'0 0.0
2018-Mar-18 03:00N 42°23' W 071°03'0 0.0
2018-Mar-18 02:30N 42°23' W 071°03'0 0.0
2018-Mar-18 02:00N 42°23' W 071°03'0 0.0
2018-Mar-18 01:30N 42°23' W 071°03'0 0.0
2018-Mar-18 01:00N 42°23' W 071°03'0 0.0
2018-Mar-18 00:30N 42°23' W 071°03'0 0.0
2018-Mar-18 00:00N 42°23' W 071°03'0 0.0
2018-Mar-17 23:30N 42°23' W 071°03'0 0.0
2018-Mar-17 23:00N 42°23' W 071°03'0 0.0
2018-Mar-17 22:30N 42°23' W 071°03'0 0.0
2018-Mar-17 22:00N 42°23' W 071°03'0 0.0
2018-Mar-17 21:30N 42°23' W 071°03'0 0.0
2018-Mar-17 21:00N 42°23' W 071°03'0 0.0
2018-Mar-17 20:30N 42°23' W 071°03'0 0.0
2018-Mar-17 20:00N 42°23' W 071°03'0 0.0
2018-Mar-17 19:30N 42°23' W 071°03'0 0.0
2018-Mar-17 19:00N 42°23' W 071°03'0 0.0
2018-Mar-17 18:30N 42°23' W 071°03'0 0.0
2018-Mar-17 18:00N 42°23' W 071°03'0 0.0
2018-Mar-17 17:30N 42°23' W 071°03'0 0.0
2018-Mar-17 17:00N 42°23' W 071°03'0 0.0
2018-Mar-17 16:30N 42°23' W 071°03'0 0.0
2018-Mar-17 16:00N 42°23' W 071°03'0 0.0
2018-Mar-17 15:30N 42°23' W 071°03'0 0.0
2018-Mar-17 15:00N 42°23' W 071°03'0 0.0
2018-Mar-17 14:30N 42°23' W 071°03'0 0.0
2018-Mar-17 14:00N 42°23' W 071°03'0 0.0
2018-Mar-17 13:31N 42°23' W 071°03'0 0.0
2018-Mar-17 13:00N 42°23' W 071°03'0 0.0
2018-Mar-17 12:30N 42°23' W 071°03'0 0.0
2018-Mar-17 12:00N 42°23' W 071°03'0 0.0
2018-Mar-17 11:30N 42°23' W 071°03'0 0.0
2018-Mar-17 11:00N 42°23' W 071°03'0 0.0
2018-Mar-17 10:30N 42°23' W 071°03'0 0.0
2018-Mar-17 10:00N 42°23' W 071°03'0 0.0
2018-Mar-17 09:30N 42°23' W 071°03'0 0.0
2018-Mar-17 09:00N 42°23' W 071°03'0 0.0
2018-Mar-17 08:30N 42°23' W 071°03'0 0.0
2018-Mar-17 08:00N 42°23' W 071°03'0 0.0
2018-Mar-17 07:30N 42°23' W 071°03'0 0.0
2018-Mar-17 07:00N 42°23' W 071°03'0 0.0
2018-Mar-17 06:30N 42°23' W 071°03'0 0.0
2018-Mar-17 06:00N 42°23' W 071°03'0 0.0
2018-Mar-17 05:30N 42°23' W 071°03'0 0.0
2018-Mar-17 05:00N 42°23' W 071°03'0 0.0
2018-Mar-17 04:30N 42°23' W 071°03'0 0.0
2018-Mar-17 04:00N 42°23' W 071°03'0 0.0
2018-Mar-17 03:30N 42°23' W 071°03'0 0.0
2018-Mar-17 03:00N 42°23' W 071°03'0 0.0
2018-Mar-17 02:30N 42°23' W 071°03'0 0.0
2018-Mar-17 02:00N 42°23' W 071°03'0 0.0
2018-Mar-17 01:30N 42°23' W 071°03'0 0.0
2018-Mar-17 01:00N 42°23' W 071°03'0 0.0
2018-Mar-17 00:30N 42°23' W 071°03'0 0.0
2018-Mar-17 00:00N 42°23' W 071°03'0 0.0
2018-Mar-16 23:30N 42°23' W 071°03'0 0.0
2018-Mar-16 23:00N 42°23' W 071°03'0 0.0
2018-Mar-16 22:30N 42°23' W 071°03'0 0.0
2018-Mar-16 22:00N 42°23' W 071°03'0 0.0
2018-Mar-16 21:30N 42°23' W 071°03'0 0.0
2018-Mar-16 21:00N 42°23' W 071°03'0 0.0
2018-Mar-16 20:30N 42°23' W 071°03'0 0.0
2018-Mar-16 20:00N 42°23' W 071°03'0 0.0
2018-Mar-16 19:30N 42°23' W 071°03'0 0.0
2018-Mar-16 19:00N 42°23' W 071°03'0 0.0
2018-Mar-16 18:30N 42°23' W 071°03'0 0.0
2018-Mar-16 18:00N 42°23' W 071°03'0 0.0
2018-Mar-16 17:30N 42°23' W 071°03'0 0.0
2018-Mar-16 17:00N 42°23' W 071°03'0 0.0
2018-Mar-16 16:30N 42°23' W 071°03'0 0.0
2018-Mar-16 16:00N 42°23' W 071°03'0 0.0
2018-Mar-16 15:30N 42°23' W 071°03'0 0.0
2018-Mar-16 15:00N 42°23' W 071°03'0 0.0
2018-Mar-16 14:31N 42°23' W 071°03'0 0.0
2018-Mar-16 14:00N 42°23' W 071°03'0 0.0
2018-Mar-16 13:30N 42°23' W 071°03'0 0.0
2018-Mar-16 13:00N 42°23' W 071°03'0 0.0
2018-Mar-16 12:30N 42°23' W 071°03'0 0.0
2018-Mar-16 12:00N 42°23' W 071°03'0 0.0
2018-Mar-16 11:29N 42°23' W 071°03'0 0.0
2018-Mar-16 11:00N 42°23' W 071°03'0 0.0
2018-Mar-16 10:30N 42°23' W 071°03'0 0.0
2018-Mar-16 10:00N 42°23' W 071°03'0 0.0
2018-Mar-16 09:30N 42°23' W 071°03'0 0.0
2018-Mar-16 09:00N 42°23' W 071°03'0 0.0
2018-Mar-16 08:30N 42°23' W 071°03'0 0.0
2018-Mar-16 08:00N 42°23' W 071°03'0 0.0
2018-Mar-16 07:31N 42°23' W 071°03'0 0.0
2018-Mar-16 07:00N 42°23' W 071°03'0 0.0
2018-Mar-16 06:30N 42°23' W 071°03'0 0.0
2018-Mar-16 06:00N 42°23' W 071°03'0 0.0
2018-Mar-16 05:30N 42°23' W 071°03'0 0.0
2018-Mar-16 05:01N 42°23' W 071°03'0 0.0
2018-Mar-16 04:30N 42°23' W 071°03'0 0.0
2018-Mar-16 04:00N 42°23' W 071°03'0 0.0
2018-Mar-16 03:30N 42°23' W 071°03'0 0.0
2018-Mar-16 03:01N 42°23' W 071°03'0 0.0
2018-Mar-16 02:30N 42°23' W 071°03'0 0.0
2018-Mar-16 02:00N 42°23' W 071°03'0 0.0
2018-Mar-16 01:30N 42°23' W 071°03'0 0.0
2018-Mar-16 01:00N 42°23' W 071°03'0 0.0
2018-Mar-16 00:30N 42°23' W 071°03'0 0.0
2018-Mar-16 00:00N 42°23' W 071°03'0 0.0
2018-Mar-15 23:30N 42°23' W 071°03'0 0.0
2018-Mar-15 23:00N 42°23' W 071°03'0 0.0
2018-Mar-15 22:29N 42°23' W 071°03'0 0.0
2018-Mar-15 22:00N 42°23' W 071°03'0 0.0
2018-Mar-15 21:30N 42°23' W 071°03'0 0.0
2018-Mar-15 21:00N 42°23' W 071°03'0 0.0
2018-Mar-15 20:30N 42°23' W 071°03'0 0.0
2018-Mar-15 20:00N 42°23' W 071°03'0 0.0
2018-Mar-15 19:30N 42°23' W 071°03'0 0.0
2018-Mar-15 19:00N 42°23' W 071°03'0 0.0
2018-Mar-15 18:30N 42°23' W 071°03'0 0.0
2018-Mar-15 18:00N 42°23' W 071°03'0 0.0
2018-Mar-15 17:29N 42°23' W 071°03'0 0.0
2018-Mar-15 17:00N 42°23' W 071°03'0 0.0
2018-Mar-15 16:30N 42°23' W 071°03'0 0.0
2018-Mar-15 16:00N 42°23' W 071°03'0 0.0
2018-Mar-15 15:30N 42°23' W 071°03'0 0.0
2018-Mar-15 15:00N 42°23' W 071°03'0 0.0
2018-Mar-15 14:30N 42°23' W 071°03'0 0.0
2018-Mar-15 14:01N 42°23' W 071°03'0 0.0
2018-Mar-15 13:30N 42°23' W 071°03'0 0.0
2018-Mar-15 13:00N 42°23' W 071°03'0 0.0
2018-Mar-15 12:30N 42°23' W 071°03'0 0.0
2018-Mar-15 12:00N 42°23' W 071°03'0 0.0
2018-Mar-15 11:30N 42°23' W 071°03'0 0.0
2018-Mar-15 11:01N 42°23' W 071°03'0 0.0
2018-Mar-15 10:30N 42°23' W 071°03'0 0.0
2018-Mar-15 10:00N 42°23' W 071°03'0 0.0
2018-Mar-15 09:30N 42°23' W 071°03'0 0.0
2018-Mar-15 09:00N 42°23' W 071°03'0 0.0
2018-Mar-15 08:30N 42°23' W 071°03'0 0.0
2018-Mar-15 08:01N 42°23' W 071°03'0 0.0
2018-Mar-15 07:30N 42°23' W 071°03'0 0.0
2018-Mar-15 07:00N 42°23' W 071°03'0 0.0
2018-Mar-15 06:30N 42°23' W 071°03'0 0.0
2018-Mar-15 06:00N 42°23' W 071°03'0 0.0
2018-Mar-15 05:31N 42°23' W 071°03'0 0.0
2018-Mar-15 05:00N 42°23' W 071°03'0 0.0
2018-Mar-15 04:30N 42°23' W 071°03'0 0.0
2018-Mar-15 04:00N 42°23' W 071°03'0 0.0
2018-Mar-15 03:30N 42°23' W 071°03'0 0.0
2018-Mar-15 03:00N 42°23' W 071°03'0 0.0
2018-Mar-15 02:30N 42°23' W 071°03'0 0.0
2018-Mar-15 02:00N 42°23' W 071°03'0 0.0
2018-Mar-15 01:31N 42°23' W 071°03'0 0.0
2018-Mar-15 01:00N 42°23' W 071°03'0 0.0
2018-Mar-15 00:30N 42°23' W 071°03'0 0.0
2018-Mar-15 00:00N 42°23' W 071°03'0 0.0
2018-Mar-14 23:30N 42°23' W 071°03'0 0.0
2018-Mar-14 23:00N 42°23' W 071°03'0 0.0
2018-Mar-14 22:30N 42°23' W 071°03'0 0.0
2018-Mar-14 22:00N 42°23' W 071°03'0 0.0
2018-Mar-14 21:30N 42°23' W 071°03'0 0.0
2018-Mar-14 21:00N 42°23' W 071°03'0 0.0
2018-Mar-14 20:30N 42°23' W 071°03'0 0.0
2018-Mar-14 20:00N 42°23' W 071°03'0 0.0
2018-Mar-14 19:30N 42°23' W 071°03'0 0.0
2018-Mar-14 19:00N 42°23' W 071°03'0 0.0
2018-Mar-14 18:30N 42°23' W 071°03'0 0.0
2018-Mar-14 18:00N 42°23' W 071°03'0 0.0
2018-Mar-14 17:31N 42°23' W 071°03'0 0.0
2018-Mar-14 17:00N 42°23' W 071°03'0 0.0
2018-Mar-14 16:30N 42°23' W 071°03'0 0.0
2018-Mar-14 16:00N 42°23' W 071°03'0 0.0
2018-Mar-14 15:31N 42°23' W 071°03'0 0.0
2018-Mar-14 15:00N 42°23' W 071°03'0 0.0
2018-Mar-14 14:30N 42°23' W 071°03'0 0.0
2018-Mar-14 14:00N 42°23' W 071°03'0 0.0
2018-Mar-14 13:30N 42°23' W 071°03'0 0.0
2018-Mar-14 13:00N 42°23' W 071°03'0 0.0
2018-Mar-14 12:30N 42°23' W 071°03'0 0.0
2018-Mar-14 12:00N 42°23' W 071°03'0 0.0
2018-Mar-14 11:30N 42°23' W 071°03'0 0.0
2018-Mar-14 11:01N 42°23' W 071°03'0 0.0
2018-Mar-14 10:30N 42°23' W 071°03'0 0.0
2018-Mar-14 10:00N 42°23' W 071°03'0 0.0
2018-Mar-14 09:30N 42°23' W 071°03'0 0.0
2018-Mar-14 09:00N 42°23' W 071°03'0 0.0
2018-Mar-14 08:30N 42°23' W 071°03'0 0.0
2018-Mar-14 08:00N 42°23' W 071°03'0 0.0
2018-Mar-14 07:30N 42°23' W 071°03'0 0.0
2018-Mar-14 07:00N 42°23' W 071°03'0 0.0
2018-Mar-14 06:30N 42°23' W 071°03'0 0.0
2018-Mar-14 06:00N 42°23' W 071°03'0 0.0
2018-Mar-14 05:31N 42°23' W 071°03'0 0.0
2018-Mar-14 05:00N 42°23' W 071°03'0 0.0
2018-Mar-14 04:30N 42°23' W 071°03'0 0.0
2018-Mar-14 04:00N 42°23' W 071°03'0 0.0
2018-Mar-14 03:30N 42°23' W 071°03'0 0.0
2018-Mar-14 03:00N 42°23' W 071°03'0 0.0
2018-Mar-14 02:30N 42°23' W 071°03'0 0.0
2018-Mar-14 02:00N 42°23' W 071°03'0 0.0
2018-Mar-14 01:30N 42°23' W 071°03'0 0.0
2018-Mar-14 01:00N 42°23' W 071°03'0 0.0
2018-Mar-14 00:30N 42°23' W 071°03'0 0.0
2018-Mar-14 00:00N 42°23' W 071°03'0 0.0
2018-Mar-13 23:30N 42°23' W 071°03'0 0.0
2018-Mar-13 23:00N 42°23' W 071°03'0 0.0
2018-Mar-13 22:30N 42°23' W 071°03'0 0.0
2018-Mar-13 22:00N 42°23' W 071°03'0 0.0
2018-Mar-13 21:30N 42°23' W 071°03'0 0.0
2018-Mar-13 21:00N 42°23' W 071°03'0 0.0
2018-Mar-13 20:30N 42°23' W 071°03'0 0.0
2018-Mar-13 20:00N 42°23' W 071°03'0 0.0
2018-Mar-13 19:30N 42°23' W 071°03'0 0.0
2018-Mar-13 19:00N 42°23' W 071°03'0 0.0
2018-Mar-13 18:30N 42°23' W 071°03'0 0.0
2018-Mar-13 18:00N 42°23' W 071°03'0 0.0
2018-Mar-13 17:30N 42°23' W 071°03'0 0.0
2018-Mar-13 17:00N 42°23' W 071°03'0 0.0
2018-Mar-13 16:30N 42°23' W 071°03'0 0.0
2018-Mar-13 16:00N 42°23' W 071°03'0 0.0
2018-Mar-13 15:30N 42°23' W 071°03'0 0.0
2018-Mar-13 15:00N 42°23' W 071°03'0 0.0
2018-Mar-13 14:29N 42°23' W 071°03'0 0.0
2018-Mar-13 14:00N 42°23' W 071°03'0 0.0
2018-Mar-13 13:30N 42°23' W 071°03'0 0.0
2018-Mar-13 13:00N 42°23' W 071°03'0 0.0
2018-Mar-13 12:30N 42°23' W 071°03'0 0.0
2018-Mar-13 12:00N 42°23' W 071°03'0 0.0
2018-Mar-13 11:30N 42°23' W 071°03'0 0.0
2018-Mar-13 11:00N 42°23' W 071°03'0 0.0
2018-Mar-13 10:30N 42°23' W 071°03'0 0.0
2018-Mar-13 10:00N 42°23' W 071°03'0 0.0
2018-Mar-13 09:30N 42°23' W 071°03'0 0.0
2018-Mar-13 09:01N 42°23' W 071°03'0 0.0
2018-Mar-13 08:30N 42°23' W 071°03'0 0.0
2018-Mar-13 08:00N 42°23' W 071°03'0 0.0
2018-Mar-13 07:30N 42°23' W 071°03'0 0.0
2018-Mar-13 07:00N 42°23' W 071°03'0 0.0
2018-Mar-13 06:30N 42°23' W 071°03'0 0.0
2018-Mar-13 06:01N 42°23' W 071°03'0 0.0
2018-Mar-13 05:30N 42°23' W 071°03'0 0.0
2018-Mar-13 05:00N 42°23' W 071°03'0 0.0
2018-Mar-13 04:30N 42°23' W 071°03'0 0.0
2018-Mar-13 04:00N 42°23' W 071°03'0 0.0
2018-Mar-13 03:30N 42°23' W 071°03'0 0.0
2018-Mar-13 03:00N 42°23' W 071°03'0 0.0
2018-Mar-13 02:30N 42°23' W 071°03'0 0.0
2018-Mar-13 02:00N 42°23' W 071°03'0 0.0
2018-Mar-13 01:30N 42°23' W 071°03'0 0.0
2018-Mar-13 01:00N 42°23' W 071°03'0 0.0
2018-Mar-13 00:30N 42°23' W 071°03'0 0.0
2018-Mar-13 00:00N 42°23' W 071°03'0 0.0
2018-Mar-12 23:30N 42°23' W 071°03'0 0.0
2018-Mar-12 23:00N 42°23' W 071°03'0 0.0
2018-Mar-12 22:30N 42°23' W 071°03'0 0.0
2018-Mar-12 22:00N 42°23' W 071°03'0 0.0
2018-Mar-12 21:30N 42°23' W 071°03'0 0.0
2018-Mar-12 21:00N 42°23' W 071°03'0 0.0
2018-Mar-12 20:30N 42°23' W 071°03'0 0.0
2018-Mar-12 20:00N 42°23' W 071°03'0 0.0
2018-Mar-12 19:30N 42°23' W 071°03'0 0.0
2018-Mar-12 19:00N 42°23' W 071°03'0 0.0
2018-Mar-12 18:30N 42°23' W 071°03'0 0.0
2018-Mar-12 18:00N 42°23' W 071°03'0 0.0
2018-Mar-12 17:30N 42°23' W 071°03'0 0.0
2018-Mar-12 17:00N 42°23' W 071°03'0 0.0
2018-Mar-12 16:30N 42°23' W 071°03'0 0.0
2018-Mar-12 16:00N 42°23' W 071°03'0 0.0
2018-Mar-12 15:30N 42°23' W 071°03'0 0.0
2018-Mar-12 15:00N 42°23' W 071°03'0 0.0
2018-Mar-12 14:31N 42°23' W 071°03'0 0.0
2018-Mar-12 14:00N 42°23' W 071°03'0 0.0
2018-Mar-12 13:30N 42°23' W 071°03'0 0.0
2018-Mar-12 13:00N 42°23' W 071°03'0 0.0
2018-Mar-12 12:30N 42°23' W 071°03'0 0.0
2018-Mar-12 12:01N 42°23' W 071°03'0 0.0
2018-Mar-12 11:30N 42°23' W 071°03'0 0.0
2018-Mar-12 11:00N 42°23' W 071°03'0 0.0
2018-Mar-12 10:30N 42°23' W 071°03'0 0.0
2018-Mar-12 10:00N 42°23' W 071°03'0 0.0
2018-Mar-12 09:30N 42°23' W 071°03'0 0.0
2018-Mar-12 09:00N 42°23' W 071°03'0 0.0
2018-Mar-12 08:30N 42°23' W 071°03'0 0.0
2018-Mar-12 08:00N 42°23' W 071°03'0 0.0
2018-Mar-12 07:30N 42°23' W 071°03'0 0.0
2018-Mar-12 07:00N 42°23' W 071°03'0 0.0
2018-Mar-12 06:30N 42°23' W 071°03'0 0.0
2018-Mar-12 06:00N 42°23' W 071°03'0 0.0
2018-Mar-12 05:30N 42°23' W 071°03'0 0.0
2018-Mar-12 05:00N 42°23' W 071°03'0 0.0
2018-Mar-12 04:30N 42°23' W 071°03'0 0.0
2018-Mar-12 04:00N 42°23' W 071°03'0 0.0
2018-Mar-12 03:30N 42°23' W 071°03'0 0.0
2018-Mar-12 03:00N 42°23' W 071°03'0 0.0
2018-Mar-12 02:30N 42°23' W 071°03'0 0.0
2018-Mar-12 02:00N 42°23' W 071°03'0 0.0
2018-Mar-12 01:30N 42°23' W 071°03'0 0.0
2018-Mar-12 01:00N 42°23' W 071°03'0 0.0
2018-Mar-12 00:30N 42°23' W 071°03'0 0.0
2018-Mar-12 00:00N 42°23' W 071°03'0 0.0
2018-Mar-11 23:30N 42°23' W 071°03'0 0.0
2018-Mar-11 23:00N 42°23' W 071°03'0 0.0
2018-Mar-11 22:30N 42°23' W 071°03'0 0.0
2018-Mar-11 22:00N 42°23' W 071°03'0 0.0
2018-Mar-11 21:30N 42°23' W 071°03'0 0.0
2018-Mar-11 21:00N 42°23' W 071°03'0 0.0
2018-Mar-11 20:30N 42°23' W 071°03'0 0.0
2018-Mar-11 20:00N 42°23' W 071°03'0 0.0
2018-Mar-11 19:30N 42°23' W 071°03'0 0.0
2018-Mar-11 19:00N 42°23' W 071°03'0 0.0
2018-Mar-11 18:30N 42°23' W 071°03'0 0.0
2018-Mar-11 18:00N 42°23' W 071°03'0 0.0
2018-Mar-11 17:30N 42°23' W 071°03'0 0.0
2018-Mar-11 17:00N 42°23' W 071°03'0 0.0
2018-Mar-11 16:30N 42°23' W 071°03'0 0.0
2018-Mar-11 16:00N 42°23' W 071°03'0 0.0
2018-Mar-11 15:30N 42°23' W 071°03'0 0.0
2018-Mar-11 15:00N 42°23' W 071°03'0 0.0
2018-Mar-11 14:31N 42°23' W 071°03'0 0.0
2018-Mar-11 14:00N 42°23' W 071°03'0 0.0
2018-Mar-11 13:30N 42°23' W 071°03'0 0.0
2018-Mar-11 13:00N 42°23' W 071°03'0 0.0
2018-Mar-11 12:30N 42°23' W 071°03'0 0.0
2018-Mar-11 12:00N 42°23' W 071°03'0 0.0
2018-Mar-11 11:29N 42°23' W 071°03'0 0.0
2018-Mar-11 11:00N 42°23' W 071°03'0 0.0
2018-Mar-11 10:30N 42°23' W 071°03'0 0.0
2018-Mar-11 10:00N 42°23' W 071°03'0 0.0
2018-Mar-11 09:30N 42°23' W 071°03'0 0.0
2018-Mar-11 09:00N 42°23' W 071°03'0 0.0
2018-Mar-11 08:30N 42°23' W 071°03'0 0.0
2018-Mar-11 08:00N 42°23' W 071°03'0 0.0
2018-Mar-11 07:30N 42°23' W 071°03'0 0.0
2018-Mar-11 07:00N 42°23' W 071°03'0 0.0
2018-Mar-11 06:30N 42°23' W 071°03'0 0.0
2018-Mar-11 06:00N 42°23' W 071°03'0 0.0
2018-Mar-11 05:30N 42°23' W 071°03'0 0.0
2018-Mar-11 05:00N 42°23' W 071°03'0 0.0
2018-Mar-11 04:30N 42°23' W 071°03'0 0.0
2018-Mar-11 04:00N 42°23' W 071°03'0 0.0
2018-Mar-11 03:30N 42°23' W 071°03'0 0.0
2018-Mar-11 03:00N 42°23' W 071°03'0 0.0
2018-Mar-11 02:31N 42°23' W 071°03'0 0.0
2018-Mar-11 02:00N 42°23' W 071°03'0 0.0
2018-Mar-11 01:30N 42°23' W 071°03'0 0.0
2018-Mar-11 01:00N 42°23' W 071°03'0 0.0
2018-Mar-11 00:30N 42°23' W 071°03'0 0.0
2018-Mar-11 00:00N 42°23' W 071°03'0 0.0
2018-Mar-10 23:30N 42°23' W 071°03'0 0.0
2018-Mar-10 23:00N 42°23' W 071°03'0 0.0
2018-Mar-10 22:30N 42°23' W 071°03'0 0.0
2018-Mar-10 22:00N 42°23' W 071°03'0 0.0
2018-Mar-10 21:30N 42°23' W 071°03'0 0.0
2018-Mar-10 21:01N 42°23' W 071°03'  

Dump ship's entire track history